sensor_id;sensor_type;location;lat;lon;timestamp;pressure;altitude;pressure_sealevel;temperature;humidity
43153;BME280;28756;49.064;9.290;2023-03-03T00:00:46;99316.78;;;-0.55;100.00
43153;BME280;28756;49.064;9.290;2023-03-03T00:03:16;99314.28;;;-0.65;100.00
43153;BME280;28756;49.064;9.290;2023-03-03T00:05:43;99311.78;;;-0.72;100.00
43153;BME280;28756;49.064;9.290;2023-03-03T00:08:09;99305.84;;;-0.79;100.00
43153;BME280;28756;49.064;9.290;2023-03-03T00:10:36;99312.69;;;-0.86;100.00
43153;BME280;28756;49.064;9.290;2023-03-03T00:13:02;99317.81;;;-0.92;100.00
43153;BME280;28756;49.064;9.290;2023-03-03T00:15:29;99323.81;;;-1.01;100.00
43153;BME280;28756;49.064;9.290;2023-03-03T00:17:55;99322.97;;;-1.06;100.00
43153;BME280;28756;49.064;9.290;2023-03-03T00:23:30;99323.88;;;-1.16;100.00
43153;BME280;28756;49.064;9.290;2023-03-03T00:25:59;99327.28;;;-1.25;100.00
43153;BME280;28756;49.064;9.290;2023-03-03T00:28:30;99334.09;;;-1.33;100.00
43153;BME280;28756;49.064;9.290;2023-03-03T00:30:59;99332.44;;;-1.39;100.00
43153;BME280;28756;49.064;9.290;2023-03-03T00:33:38;99330.75;;;-1.40;100.00
43153;BME280;28756;49.064;9.290;2023-03-03T00:36:37;99335.00;;;-1.47;100.00
43153;BME280;28756;49.064;9.290;2023-03-03T00:39:37;99336.69;;;-1.49;100.00
43153;BME280;28756;49.064;9.290;2023-03-03T00:42:30;99331.59;;;-1.60;100.00
43153;BME280;28756;49.064;9.290;2023-03-03T00:44:59;99331.63;;;-1.72;100.00
43153;BME280;28756;49.064;9.290;2023-03-03T00:47:31;99340.13;;;-1.75;100.00
43153;BME280;28756;49.064;9.290;2023-03-03T00:52:38;99335.88;;;-1.82;100.00
43153;BME280;28756;49.064;9.290;2023-03-03T00:55:06;99335.00;;;-1.81;100.00
43153;BME280;28756;49.064;9.290;2023-03-03T00:57:32;99346.06;;;-1.85;100.00
43153;BME280;28756;49.064;9.290;2023-03-03T00:59:58;99343.53;;;-1.91;100.00
43153;BME280;28756;49.064;9.290;2023-03-03T01:02:24;99344.38;;;-1.95;100.00
43153;BME280;28756;49.064;9.290;2023-03-03T01:04:52;99340.13;;;-1.98;100.00
43153;BME280;28756;49.064;9.290;2023-03-03T01:07:21;99339.28;;;-2.01;100.00
43153;BME280;28756;49.064;9.290;2023-03-03T01:09:47;99345.22;;;-2.04;100.00
43153;BME280;28756;49.064;9.290;2023-03-03T01:12:13;99346.91;;;-2.06;100.00
43153;BME280;28756;49.064;9.290;2023-03-03T01:14:40;99341.78;;;-2.15;100.00
43153;BME280;28756;49.064;9.290;2023-03-03T01:17:06;99337.56;;;-2.19;100.00
43153;BME280;28756;49.064;9.290;2023-03-03T01:19:32;99336.69;;;-2.20;100.00
43153;BME280;28756;49.064;9.290;2023-03-03T01:21:57;99340.94;;;-2.19;100.00
43153;BME280;28756;49.064;9.290;2023-03-03T01:24:23;99333.28;;;-2.24;100.00
43153;BME280;28756;49.064;9.290;2023-03-03T01:26:49;99329.91;;;-2.24;100.00
43153;BME280;28756;49.064;9.290;2023-03-03T01:29:14;99330.72;;;-2.28;100.00
43153;BME280;28756;49.064;9.290;2023-03-03T01:31:40;99325.63;;;-2.34;100.00
43153;BME280;28756;49.064;9.290;2023-03-03T01:34:06;99328.19;;;-2.38;100.00
43153;BME280;28756;49.064;9.290;2023-03-03T01:36:33;99322.25;;;-2.35;100.00
43153;BME280;28756;49.064;9.290;2023-03-03T01:39:00;99321.41;;;-2.39;100.00
43153;BME280;28756;49.064;9.290;2023-03-03T01:41:30;99334.97;;;-2.40;100.00
43153;BME280;28756;49.064;9.290;2023-03-03T01:43:58;99330.69;;;-2.48;100.00
43153;BME280;28756;49.064;9.290;2023-03-03T01:46:58;99328.13;;;-2.55;100.00
43153;BME280;28756;49.064;9.290;2023-03-03T01:49:59;99322.19;;;-2.58;100.00
43153;BME280;28756;49.064;9.290;2023-03-03T01:52:37;99322.19;;;-2.64;100.00
43153;BME280;28756;49.064;9.290;2023-03-03T01:55:12;99330.66;;;-2.67;100.00
43153;BME280;28756;49.064;9.290;2023-03-03T01:57:45;99329.78;;;-2.74;100.00
43153;BME280;28756;49.064;9.290;2023-03-03T02:00:14;99325.50;;;-2.79;100.00
43153;BME280;28756;49.064;9.290;2023-03-03T02:02:41;99328.94;;;-2.80;100.00
43153;BME280;28756;49.064;9.290;2023-03-03T02:05:08;99328.06;;;-2.82;100.00
43153;BME280;28756;49.064;9.290;2023-03-03T02:07:35;99320.41;;;-2.84;100.00
43153;BME280;28756;49.064;9.290;2023-03-03T02:12:54;99322.09;;;-2.89;100.00
43153;BME280;28756;49.064;9.290;2023-03-03T02:15:34;99322.94;;;-2.90;100.00
43153;BME280;28756;49.064;9.290;2023-03-03T02:18:10;99327.19;;;-2.92;100.00
43153;BME280;28756;49.064;9.290;2023-03-03T02:26:15;99340.75;;;-2.90;100.00
43153;BME280;28756;49.064;9.290;2023-03-03T02:28:41;99336.50;;;-2.94;100.00
43153;BME280;28756;49.064;9.290;2023-03-03T02:31:15;99334.81;;;-2.97;100.00
43153;BME280;28756;49.064;9.290;2023-03-03T02:33:43;99322.06;;;-2.98;100.00
43153;BME280;28756;49.064;9.290;2023-03-03T02:36:17;99325.47;;;-2.92;100.00
43153;BME280;28756;49.064;9.290;2023-03-03T02:39:23;99336.47;;;-2.96;100.00
43153;BME280;28756;49.064;9.290;2023-03-03T02:42:06;99340.69;;;-2.99;100.00
43153;BME280;28756;49.064;9.290;2023-03-03T02:44:33;99329.66;;;-3.06;100.00
43153;BME280;28756;49.064;9.290;2023-03-03T02:46:59;99332.19;;;-3.11;100.00
43153;BME280;28756;49.064;9.290;2023-03-03T02:49:35;99332.16;;;-3.17;100.00
43153;BME280;28756;49.064;9.290;2023-03-03T02:52:05;99332.13;;;-3.20;100.00
43153;BME280;28756;49.064;9.290;2023-03-03T02:54:31;99331.28;;;-3.19;100.00
43153;BME280;28756;49.064;9.290;2023-03-03T02:56:59;99336.34;;;-3.25;100.00
43153;BME280;28756;49.064;9.290;2023-03-03T02:59:25;99344.81;;;-3.26;100.00
43153;BME280;28756;49.064;9.290;2023-03-03T03:01:51;99340.56;;;-3.27;100.00
43153;BME280;28756;49.064;9.290;2023-03-03T03:04:21;99338.88;;;-3.28;100.00
43153;BME280;28756;49.064;9.290;2023-03-03T03:06:47;99351.59;;;-3.30;100.00
43153;BME280;28756;49.064;9.290;2023-03-03T03:09:14;99346.50;;;-3.31;100.00
43153;BME280;28756;49.064;9.290;2023-03-03T03:11:41;99339.75;;;-3.23;100.00
43153;BME280;28756;49.064;9.290;2023-03-03T03:14:09;99337.19;;;-3.28;100.00
43153;BME280;28756;49.064;9.290;2023-03-03T03:16:36;99346.53;;;-3.25;100.00
43153;BME280;28756;49.064;9.290;2023-03-03T03:19:03;99343.13;;;-3.26;100.00
43153;BME280;28756;49.064;9.290;2023-03-03T03:21:30;99349.06;;;-3.24;100.00
43153;BME280;28756;49.064;9.290;2023-03-03T03:23:55;99349.88;;;-3.29;100.00
43153;BME280;28756;49.064;9.290;2023-03-03T03:26:21;99346.50;;;-3.31;100.00
43153;BME280;28756;49.064;9.290;2023-03-03T03:28:49;99345.59;;;-3.35;100.00
43153;BME280;28756;49.064;9.290;2023-03-03T03:31:17;99351.53;;;-3.39;100.00
43153;BME280;28756;49.064;9.290;2023-03-03T03:33:43;99351.50;;;-3.45;100.00
43153;BME280;28756;49.064;9.290;2023-03-03T03:36:09;99357.38;;;-3.51;100.00
43153;BME280;28756;49.064;9.290;2023-03-03T03:38:36;99347.22;;;-3.53;100.00
43153;BME280;28756;49.064;9.290;2023-03-03T03:41:03;99354.81;;;-3.54;100.00
43153;BME280;28756;49.064;9.290;2023-03-03T03:43:29;99348.00;;;-3.58;100.00
43153;BME280;28756;49.064;9.290;2023-03-03T03:45:55;99348.00;;;-3.58;100.00
43153;BME280;28756;49.064;9.290;2023-03-03T03:48:21;99351.41;;;-3.58;100.00
43153;BME280;28756;49.064;9.290;2023-03-03T03:50:47;99353.09;;;-3.60;100.00
43153;BME280;28756;49.064;9.290;2023-03-03T03:53:14;99350.53;;;-3.61;100.00
43153;BME280;28756;49.064;9.290;2023-03-03T03:55:39;99347.97;;;-3.61;100.00
43153;BME280;28756;49.064;9.290;2023-03-03T03:58:05;99354.78;;;-3.60;100.00
43153;BME280;28756;49.064;9.290;2023-03-03T04:00:31;99350.53;;;-3.61;100.00
43153;BME280;28756;49.064;9.290;2023-03-03T04:02:57;99352.22;;;-3.59;100.00
43153;BME280;28756;49.064;9.290;2023-03-03T04:05:22;99354.81;;;-3.57;100.00
43153;BME280;28756;49.064;9.290;2023-03-03T04:07:48;99359.06;;;-3.55;100.00
43153;BME280;28756;49.064;9.290;2023-03-03T04:10:14;99353.97;;;-3.53;100.00
43153;BME280;28756;49.064;9.290;2023-03-03T04:12:40;99355.75;;;-3.44;100.00
43153;BME280;28756;49.064;9.290;2023-03-03T04:15:11;99362.56;;;-3.37;100.00
43153;BME280;28756;49.064;9.290;2023-03-03T04:17:37;99364.31;;;-3.31;100.00
43153;BME280;28756;49.064;9.290;2023-03-03T04:20:05;99366.03;;;-3.24;100.00
43153;BME280;28756;49.064;9.290;2023-03-03T04:22:32;99365.22;;;-3.20;100.00
43153;BME280;28756;49.064;9.290;2023-03-03T04:24:59;99368.66;;;-3.13;100.00
43153;BME280;28756;49.064;9.290;2023-03-03T04:27:33;99370.34;;;-3.11;100.00
43153;BME280;28756;49.064;9.290;2023-03-03T04:29:59;99370.38;;;-3.06;100.00
43153;BME280;28756;49.064;9.290;2023-03-03T04:32:25;99368.69;;;-3.03;100.00
43153;BME280;28756;49.064;9.290;2023-03-03T04:34:51;99367.84;;;-3.03;100.00
43153;BME280;28756;49.064;9.290;2023-03-03T04:37:16;99360.22;;;-3.02;100.00
43153;BME280;28756;49.064;9.290;2023-03-03T04:39:42;99367.03;;;-2.94;100.00
43153;BME280;28756;49.064;9.290;2023-03-03T04:42:08;99370.44;;;-2.89;100.00
43153;BME280;28756;49.064;9.290;2023-03-03T04:44:33;99367.88;;;-2.95;100.00
43153;BME280;28756;49.064;9.290;2023-03-03T04:46:59;99366.19;;;-2.98;100.00
43153;BME280;28756;49.064;9.290;2023-03-03T04:49:25;99358.56;;;-2.93;100.00
43153;BME280;28756;49.064;9.290;2023-03-03T04:51:51;99353.47;;;-2.92;100.00
43153;BME280;28756;49.064;9.290;2023-03-03T04:54:17;99358.59;;;-2.87;100.00
43153;BME280;28756;49.064;9.290;2023-03-03T04:56:42;99362.84;;;-2.83;100.00
43153;BME280;28756;49.064;9.290;2023-03-03T04:59:08;99356.06;;;-2.79;100.00
43153;BME280;28756;49.064;9.290;2023-03-03T05:01:34;99363.72;;;-2.75;100.00
43153;BME280;28756;49.064;9.290;2023-03-03T05:04:00;99374.78;;;-2.70;100.00
43153;BME280;28756;49.064;9.290;2023-03-03T05:06:25;99359.50;;;-2.68;100.00
43153;BME280;28756;49.064;9.290;2023-03-03T05:08:51;99363.75;;;-2.65;100.00
43153;BME280;28756;49.064;9.290;2023-03-03T05:11:17;99383.28;;;-2.64;100.00
43153;BME280;28756;49.064;9.290;2023-03-03T05:13:42;99381.56;;;-2.64;100.00
43153;BME280;28756;49.064;9.290;2023-03-03T05:16:09;99386.69;;;-2.62;100.00
43153;BME280;28756;49.064;9.290;2023-03-03T05:18:35;99387.53;;;-2.65;100.00
43153;BME280;28756;49.064;9.290;2023-03-03T05:21:00;99385.84;;;-2.66;100.00
43153;BME280;28756;49.064;9.290;2023-03-03T05:23:27;99385.84;;;-2.63;100.00
43153;BME280;28756;49.064;9.290;2023-03-03T05:25:53;99395.16;;;-2.60;100.00
43153;BME280;28756;49.064;9.290;2023-03-03T05:28:19;99393.50;;;-2.60;100.00
43153;BME280;28756;49.064;9.290;2023-03-03T05:30:45;99391.81;;;-2.58;100.00
43153;BME280;28756;49.064;9.290;2023-03-03T05:33:15;99396.06;;;-2.57;100.00
43153;BME280;28756;49.064;9.290;2023-03-03T05:35:42;99397.75;;;-2.52;100.00
43153;BME280;28756;49.064;9.290;2023-03-03T05:38:07;99393.50;;;-2.52;100.00
43153;BME280;28756;49.064;9.290;2023-03-03T05:40:33;99396.06;;;-2.52;100.00
43153;BME280;28756;49.064;9.290;2023-03-03T05:42:59;99398.59;;;-2.54;100.00
43153;BME280;28756;49.064;9.290;2023-03-03T05:45:25;99401.16;;;-2.52;100.00
43153;BME280;28756;49.064;9.290;2023-03-03T05:47:51;99399.47;;;-2.51;100.00
43153;BME280;28756;49.064;9.290;2023-03-03T05:50:19;99410.50;;;-2.51;100.00
43153;BME280;28756;49.064;9.290;2023-03-03T05:52:49;99414.75;;;-2.47;100.00
43153;BME280;28756;49.064;9.290;2023-03-03T05:55:16;99407.13;;;-2.45;100.00
43153;BME280;28756;49.064;9.290;2023-03-03T05:57:42;99413.06;;;-2.46;100.00
43153;BME280;28756;49.064;9.290;2023-03-03T06:00:10;99412.22;;;-2.44;100.00
43153;BME280;28756;49.064;9.290;2023-03-03T06:02:36;99413.09;;;-2.43;100.00
43153;BME280;28756;49.064;9.290;2023-03-03T06:05:02;99414.75;;;-2.47;100.00
43153;BME280;28756;49.064;9.290;2023-03-03T06:07:27;99419.00;;;-2.49;100.00
43153;BME280;28756;49.064;9.290;2023-03-03T06:09:53;99420.69;;;-2.52;100.00
43153;BME280;28756;49.064;9.290;2023-03-03T06:12:19;99426.59;;;-2.58;100.00
43153;BME280;28756;49.064;9.290;2023-03-03T06:14:45;99428.31;;;-2.57;100.00
43153;BME280;28756;49.064;9.290;2023-03-03T06:17:11;99424.06;;;-2.57;100.00
43153;BME280;28756;49.064;9.290;2023-03-03T06:19:37;99419.81;;;-2.58;100.00
43153;BME280;28756;49.064;9.290;2023-03-03T06:22:03;99428.31;;;-2.57;100.00
43153;BME280;28756;49.064;9.290;2023-03-03T06:24:28;99430.88;;;-2.54;100.00
43153;BME280;28756;49.064;9.290;2023-03-03T06:26:58;99428.31;;;-2.51;100.00
43153;BME280;28756;49.064;9.290;2023-03-03T06:29:24;99438.53;;;-2.48;100.00
43153;BME280;28756;49.064;9.290;2023-03-03T06:31:50;99436.84;;;-2.44;100.00
43153;BME280;28756;49.064;9.290;2023-03-03T06:34:15;99439.41;;;-2.40;100.00
43153;BME280;28756;49.064;9.290;2023-03-03T06:36:41;99447.94;;;-2.33;100.00
43153;BME280;28756;49.064;9.290;2023-03-03T06:39:07;99448.78;;;-2.25;100.00
43153;BME280;28756;49.064;9.290;2023-03-03T06:41:32;99450.50;;;-2.24;100.00
43153;BME280;28756;49.064;9.290;2023-03-03T06:43:58;99450.53;;;-2.22;100.00
43153;BME280;28756;49.064;9.290;2023-03-03T06:46:25;99453.94;;;-2.18;100.00
43153;BME280;28756;49.064;9.290;2023-03-03T06:48:51;99453.09;;;-2.16;100.00
43153;BME280;28756;49.064;9.290;2023-03-03T06:51:37;99453.06;;;-2.14;100.00
43153;BME280;28756;49.064;9.290;2023-03-03T06:54:16;99455.63;;;-2.16;100.00
43153;BME280;28756;49.064;9.290;2023-03-03T06:56:44;99464.13;;;-2.11;100.00
43153;BME280;28756;49.064;9.290;2023-03-03T06:59:16;99467.56;;;-2.05;100.00
43153;BME280;28756;49.064;9.290;2023-03-03T07:01:43;99453.97;;;-2.01;100.00
43153;BME280;28756;49.064;9.290;2023-03-03T07:04:43;99461.63;;;-1.97;100.00
43153;BME280;28756;49.064;9.290;2023-03-03T07:07:22;99457.38;;;-1.98;100.00
43153;BME280;28756;49.064;9.290;2023-03-03T07:09:52;99459.09;;;-1.94;100.00
43153;BME280;28756;49.064;9.290;2023-03-03T07:12:25;99465.03;;;-1.87;100.00
43153;BME280;28756;49.064;9.290;2023-03-03T07:15:13;99467.56;;;-1.85;100.00
43153;BME280;28756;49.064;9.290;2023-03-03T07:17:45;99466.75;;;-1.92;100.00
43153;BME280;28756;49.064;9.290;2023-03-03T07:20:29;99453.13;;;-2.00;100.00
43153;BME280;28756;49.064;9.290;2023-03-03T07:22:56;99460.78;;;-1.88;100.00
43153;BME280;28756;49.064;9.290;2023-03-03T07:25:30;99471.84;;;-1.81;100.00
43153;BME280;28756;49.064;9.290;2023-03-03T07:28:23;99472.72;;;-1.73;100.00
43153;BME280;28756;49.064;9.290;2023-03-03T07:30:50;99488.03;;;-1.68;100.00
43153;BME280;28756;49.064;9.290;2023-03-03T07:35:57;99472.72;;;-1.61;100.00
43153;BME280;28756;49.064;9.290;2023-03-03T07:38:37;99469.34;;;-1.50;100.00
43153;BME280;28756;49.064;9.290;2023-03-03T07:41:18;99472.75;;;-1.39;100.00
43153;BME280;28756;49.064;9.290;2023-03-03T07:43:52;99474.44;;;-1.30;100.00
43153;BME280;28756;49.064;9.290;2023-03-03T07:49:35;99479.56;;;-1.10;100.00
43153;BME280;28756;49.064;9.290;2023-03-03T07:54:46;99477.81;;;-0.85;100.00
43153;BME280;28756;49.064;9.290;2023-03-03T07:57:34;99476.09;;;-0.76;100.00
43153;BME280;28756;49.064;9.290;2023-03-03T08:08:21;99479.34;;;-0.28;100.00
43153;BME280;28756;49.064;9.290;2023-03-03T08:10:57;99466.50;;;-0.11;100.00
43153;BME280;28756;49.064;9.290;2023-03-03T08:13:28;99468.09;;;0.09;100.00
43153;BME280;28756;49.064;9.290;2023-03-03T08:18:46;99455.16;;;0.30;100.00
43153;BME280;28756;49.064;9.290;2023-03-03T08:21:21;99460.25;;;0.38;100.00
43153;BME280;28756;49.064;9.290;2023-03-03T08:23:49;99455.06;;;0.49;100.00
43153;BME280;28756;49.064;9.290;2023-03-03T08:26:17;99464.31;;;0.62;100.00
43153;BME280;28756;49.064;9.290;2023-03-03T08:28:44;99464.16;;;0.79;100.00
43153;BME280;28756;49.064;9.290;2023-03-03T08:31:10;99467.56;;;0.82;100.00
43153;BME280;28756;49.064;9.290;2023-03-03T08:33:37;99476.09;;;0.84;100.00
43153;BME280;28756;49.064;9.290;2023-03-03T08:36:05;99482.88;;;0.88;100.00
43153;BME280;28756;49.064;9.290;2023-03-03T08:38:31;99476.03;;;0.90;100.00
43153;BME280;28756;49.064;9.290;2023-03-03T08:40:57;99468.31;;;0.98;100.00
43153;BME280;28756;49.064;9.290;2023-03-03T08:43:22;99466.53;;;1.06;100.00
43153;BME280;28756;49.064;9.290;2023-03-03T08:45:52;99475.81;;;1.15;100.00
43153;BME280;28756;49.064;9.290;2023-03-03T08:48:19;99474.00;;;1.26;100.00
43153;BME280;28756;49.064;9.290;2023-03-03T08:50:46;99472.22;;;1.33;100.00
43153;BME280;28756;49.064;9.290;2023-03-03T08:53:13;99468.66;;;1.48;100.00
43153;BME280;28756;49.064;9.290;2023-03-03T08:55:40;99462.53;;;1.58;100.00
43153;BME280;28756;49.064;9.290;2023-03-03T08:58:06;99469.31;;;1.65;100.00
43153;BME280;28756;49.064;9.290;2023-03-03T09:00:33;99476.88;;;1.73;100.00
43153;BME280;28756;49.064;9.290;2023-03-03T09:02:59;99476.19;;;1.62;100.00
43153;BME280;28756;49.064;9.290;2023-03-03T09:05:25;99480.34;;;1.70;100.00
43153;BME280;28756;49.064;9.290;2023-03-03T09:07:52;99479.22;;;1.90;100.00
43153;BME280;28756;49.064;9.290;2023-03-03T09:10:23;99484.25;;;1.99;100.00
43153;BME280;28756;49.064;9.290;2023-03-03T09:12:54;99479.91;;;2.06;100.00
43153;BME280;28756;49.064;9.290;2023-03-03T09:15:34;99479.13;;;1.99;100.00
43153;BME280;28756;49.064;9.290;2023-03-03T09:20:47;99479.56;;;2.31;100.00
43153;BME280;28756;49.064;9.290;2023-03-03T09:23:35;99467.28;;;2.50;100.00
43153;BME280;28756;49.064;9.290;2023-03-03T09:26:26;99474.88;;;2.58;100.00
43153;BME280;28756;49.064;9.290;2023-03-03T09:31:53;99483.41;;;2.60;100.00
43153;BME280;28756;49.064;9.290;2023-03-03T09:37:11;99487.28;;;2.86;100.00
43153;BME280;28756;49.064;9.290;2023-03-03T09:39:39;99493.13;;;2.94;100.00
43153;BME280;28756;49.064;9.290;2023-03-03T09:42:51;99486.97;;;3.03;100.00
43153;BME280;28756;49.064;9.290;2023-03-03T09:45:42;99489.25;;;3.20;100.00
43153;BME280;28756;49.064;9.290;2023-03-03T09:48:39;99488.19;;;3.31;100.00
43153;BME280;28756;49.064;9.290;2023-03-03T09:57:05;99500.63;;;3.55;100.00
43153;BME280;28756;49.064;9.290;2023-03-03T10:19:51;99478.13;;;5.17;100.00
43153;BME280;28756;49.064;9.290;2023-03-03T10:22:53;99473.50;;;6.21;100.00
43153;BME280;28756;49.064;9.290;2023-03-03T10:26:13;99480.50;;;6.46;99.65
43153;BME280;28756;49.064;9.290;2023-03-03T10:31:32;99472.25;;;6.88;97.74
43153;BME280;28756;49.064;9.290;2023-03-03T10:34:45;99484.91;;;6.96;95.57
43153;BME280;28756;49.064;9.290;2023-03-03T10:37:47;99473.72;;;7.46;84.05
43153;BME280;28756;49.064;9.290;2023-03-03T10:43:34;99471.16;;;7.21;81.91
43153;BME280;28756;49.064;9.290;2023-03-03T10:46:11;99472.59;;;7.30;79.97
43153;BME280;28756;49.064;9.290;2023-03-03T10:52:12;99482.69;;;7.61;74.18
43153;BME280;28756;49.064;9.290;2023-03-03T10:55:15;99484.56;;;7.07;77.30
43153;BME280;28756;49.064;9.290;2023-03-03T10:58:44;99488.22;;;7.01;81.77
43153;BME280;28756;49.064;9.290;2023-03-03T11:04:33;99494.09;;;5.93;94.07
43153;BME280;28756;49.064;9.290;2023-03-03T11:07:41;99495.66;;;5.98;97.96
43153;BME280;28756;49.064;9.290;2023-03-03T11:10:44;99492.06;;;5.74;100.00
43153;BME280;28756;49.064;9.290;2023-03-03T11:17:04;99483.88;;;6.48;100.00
43153;BME280;28756;49.064;9.290;2023-03-03T11:20:37;99477.47;;;6.60;98.51
43153;BME280;28756;49.064;9.290;2023-03-03T11:23:51;99478.81;;;6.16;96.90
43153;BME280;28756;49.064;9.290;2023-03-03T11:26:49;99477.31;;;6.91;89.21
43153;BME280;28756;49.064;9.290;2023-03-03T11:29:40;99481.06;;;7.08;85.66
43153;BME280;28756;49.064;9.290;2023-03-03T11:32:31;99481.97;;;7.07;84.47
43153;BME280;28756;49.064;9.290;2023-03-03T11:41:38;99469.75;;;7.85;75.54
43153;BME280;28756;49.064;9.290;2023-03-03T11:44:28;99465.22;;;8.14;72.55
43153;BME280;28756;49.064;9.290;2023-03-03T11:47:21;99460.44;;;8.03;74.88
43153;BME280;28756;49.064;9.290;2023-03-03T11:53:00;99450.22;;;8.00;72.05
43153;BME280;28756;49.064;9.290;2023-03-03T11:55:36;99454.00;;;7.67;74.84
43153;BME280;28756;49.064;9.290;2023-03-03T11:58:19;99438.59;;;7.88;80.91
43153;BME280;28756;49.064;9.290;2023-03-03T12:03:33;99435.81;;;7.93;78.92
43153;BME280;28756;49.064;9.290;2023-03-03T12:14:51;99430.09;;;7.61;88.13
43153;BME280;28756;49.064;9.290;2023-03-03T12:20:17;99431.50;;;7.46;85.06
43153;BME280;28756;49.064;9.290;2023-03-03T12:26:49;99415.03;;;7.94;79.08
43153;BME280;28756;49.064;9.290;2023-03-03T12:35:35;99413.69;;;7.84;85.58
43153;BME280;28756;49.064;9.290;2023-03-03T12:44:25;99402.50;;;8.50;77.07
43153;BME280;28756;49.064;9.290;2023-03-03T12:47:38;99400.16;;;7.99;79.72
43153;BME280;28756;49.064;9.290;2023-03-03T12:50:46;99405.03;;;8.07;79.12
43153;BME280;28756;49.064;9.290;2023-03-03T12:56:06;99407.50;;;7.88;81.13
43153;BME280;28756;49.064;9.290;2023-03-03T13:01:59;99397.13;;;8.10;89.91
43153;BME280;28756;49.064;9.290;2023-03-03T13:07:25;99396.28;;;8.54;83.32
43153;BME280;28756;49.064;9.290;2023-03-03T13:10:14;99391.13;;;8.10;77.59
43153;BME280;28756;49.064;9.290;2023-03-03T13:13:10;99396.25;;;8.56;78.30
43153;BME280;28756;49.064;9.290;2023-03-03T13:16:04;99393.13;;;8.68;78.51
43153;BME280;28756;49.064;9.290;2023-03-03T13:18:54;99394.78;;;8.48;75.37
43153;BME280;28756;49.064;9.290;2023-03-03T13:27:18;99393.91;;;8.27;78.34
43153;BME280;28756;49.064;9.290;2023-03-03T13:32:45;99391.94;;;8.32;77.12
43153;BME280;28756;49.064;9.290;2023-03-03T13:35:44;99391.41;;;8.46;82.51
43153;BME280;28756;49.064;9.290;2023-03-03T13:38:30;99384.06;;;8.35;86.90
43153;BME280;28756;49.064;9.290;2023-03-03T13:41:23;99384.44;;;8.26;84.41
43153;BME280;28756;49.064;9.290;2023-03-03T13:44:18;99383.28;;;8.56;85.68
43153;BME280;28756;49.064;9.290;2023-03-03T13:50:10;99383.09;;;8.16;83.26
43153;BME280;28756;49.064;9.290;2023-03-03T13:56:13;99370.88;;;7.97;85.81
43153;BME280;28756;49.064;9.290;2023-03-03T13:59:27;99369.16;;;7.98;83.75
43153;BME280;28756;49.064;9.290;2023-03-03T14:17:14;99360.66;;;7.94;90.83
43153;BME280;28756;49.064;9.290;2023-03-03T14:23:01;99359.78;;;7.94;90.12
43153;BME280;28756;49.064;9.290;2023-03-03T14:28:38;99357.41;;;7.89;94.16
43153;BME280;28756;49.064;9.290;2023-03-03T14:31:38;99358.53;;;7.82;93.93
43153;BME280;28756;49.064;9.290;2023-03-03T14:34:39;99355.22;;;7.78;96.26
43153;BME280;28756;49.064;9.290;2023-03-03T14:37:25;99357.25;;;7.70;93.96
43153;BME280;28756;49.064;9.290;2023-03-03T14:45:32;99346.72;;;7.74;98.15
43153;BME280;28756;49.064;9.290;2023-03-03T14:48:05;99349.72;;;7.64;97.67
43153;BME280;28756;49.064;9.290;2023-03-03T14:50:38;99344.38;;;7.68;94.32
43153;BME280;28756;49.064;9.290;2023-03-03T14:53:12;99341.53;;;7.74;98.76
43153;BME280;28756;49.064;9.290;2023-03-03T14:55:42;99345.81;;;7.75;97.00
43153;BME280;28756;49.064;9.290;2023-03-03T14:58:30;99342.22;;;7.80;95.55
43153;BME280;28756;49.064;9.290;2023-03-03T15:01:33;99344.38;;;7.68;97.89
43153;BME280;28756;49.064;9.290;2023-03-03T15:06:46;99339.63;;;7.57;100.00
43153;BME280;28756;49.064;9.290;2023-03-03T15:09:39;99336.06;;;7.60;98.28
43153;BME280;28756;49.064;9.290;2023-03-03T15:12:26;99336.06;;;7.60;98.30
43153;BME280;28756;49.064;9.290;2023-03-03T15:15:18;99338.66;;;7.60;96.08
43153;BME280;28756;49.064;9.290;2023-03-03T15:18:08;99342.22;;;7.57;100.00
43153;BME280;28756;49.064;9.290;2023-03-03T15:20:50;99331.50;;;7.67;95.53
43153;BME280;28756;49.064;9.290;2023-03-03T15:24:01;99332.47;;;7.64;94.98
43153;BME280;28756;49.064;9.290;2023-03-03T15:27:01;99341.25;;;7.60;95.45
43153;BME280;28756;49.064;9.290;2023-03-03T15:29:36;99336.22;;;7.55;96.97
43153;BME280;28756;49.064;9.290;2023-03-03T15:32:24;99341.41;;;7.55;98.11
43153;BME280;28756;49.064;9.290;2023-03-03T15:35:19;99344.16;;;7.51;100.00
43153;BME280;28756;49.064;9.290;2023-03-03T15:38:12;99344.00;;;7.55;97.58
43153;BME280;28756;49.064;9.290;2023-03-03T15:40:50;99339.69;;;7.56;98.81
43153;BME280;28756;49.064;9.290;2023-03-03T15:43:40;99337.84;;;7.58;97.84
43153;BME280;28756;49.064;9.290;2023-03-03T15:46:24;99332.91;;;7.52;98.97
43153;BME280;28756;49.064;9.290;2023-03-03T15:55:18;99332.91;;;7.52;99.81
43153;BME280;28756;49.064;9.290;2023-03-03T15:58:19;99343.50;;;7.46;100.00
43153;BME280;28756;49.064;9.290;2023-03-03T16:04:05;99338.34;;;7.46;98.87
43153;BME280;28756;49.064;9.290;2023-03-03T16:06:57;99344.16;;;7.51;97.56
43153;BME280;28756;49.064;9.290;2023-03-03T16:09:47;99341.00;;;7.44;100.00
43153;BME280;28756;49.064;9.290;2023-03-03T16:13:03;99345.66;;;7.34;100.00
43153;BME280;28756;49.064;9.290;2023-03-03T16:16:29;99342.41;;;7.29;100.00
43153;BME280;28756;49.064;9.290;2023-03-03T16:33:32;99364.19;;;6.98;100.00
43153;BME280;28756;49.064;9.290;2023-03-03T16:50:49;99381.06;;;6.58;100.00
43153;BME280;28756;49.064;9.290;2023-03-03T16:54:37;99384.75;;;6.51;100.00
43153;BME280;28756;49.064;9.290;2023-03-03T17:05:38;99405.47;;;5.64;100.00
43153;BME280;28756;49.064;9.290;2023-03-03T17:11:24;99410.28;;;5.15;100.00
43153;BME280;28756;49.064;9.290;2023-03-03T17:14:43;99417.78;;;4.91;100.00
43153;BME280;28756;49.064;9.290;2023-03-03T17:23:58;99423.31;;;4.39;100.00
43153;BME280;28756;49.064;9.290;2023-03-03T17:29:55;99435.09;;;4.12;100.00
43153;BME280;28756;49.064;9.290;2023-03-03T17:35:52;99437.53;;;3.81;100.00
43153;BME280;28756;49.064;9.290;2023-03-03T17:47:02;99459.38;;;3.14;100.00
43153;BME280;28756;49.064;9.290;2023-03-03T17:50:09;99461.28;;;3.03;100.00
43153;BME280;28756;49.064;9.290;2023-03-03T17:56:15;99465.13;;;2.78;100.00